Time;durP1;ratioP1;P1;durP2;ratioP2;P2;SDS_P1;SDS_P2;PMS_P1;PMS_P2;Temp;Humidity;BMP_temperature;BMP_pressure;BME280_temperature;BME280_humidity;BME280_pressure;Samples;Min_cycle;Max_cycle;Signal;HPM_P1;HPM_P2
2022/06/27 00:01:12;;;;;;;4.23;3.00;;;24.80;63.20;;;;;;5026558;28;20197;-45
2022/06/27 00:03:38;;;;;;;3.33;2.50;;;24.60;64.00;;;;;;5030011;28;20699;-44
2022/06/27 00:06:04;;;;;;;4.53;2.60;;;24.50;64.80;;;;;;5032624;28;20185;-44
2022/06/27 00:08:30;;;;;;;2.37;2.17;;;24.40;65.50;;;;;;5021533;28;20189;-46
2022/06/27 00:10:55;;;;;;;2.70;2.00;;;24.50;65.40;;;;;;5034867;28;20278;-47
2022/06/27 00:13:21;;;;;;;2.33;2.13;;;24.50;65.20;;;;;;5029086;28;20251;-46
2022/06/27 00:15:47;;;;;;;3.60;1.87;;;24.70;64.50;;;;;;5011333;28;20193;-44
2022/06/27 00:18:12;;;;;;;3.13;1.50;;;24.70;64.00;;;;;;5021659;28;20550;-44
2022/06/27 00:20:38;;;;;;;1.50;1.40;;;24.80;63.40;;;;;;5035143;28;20193;-44
2022/06/27 00:23:03;;;;;;;1.50;1.20;;;24.80;62.80;;;;;;5032794;28;20217;-47
2022/06/27 00:25:29;;;;;;;1.80;1.70;;;24.90;62.60;;;;;;5028961;28;20225;-47
2022/06/27 00:27:55;;;;;;;2.87;1.20;;;25.00;62.20;;;;;;5038697;28;20721;-48
2022/06/27 00:30:21;;;;;;;1.30;1.20;;;25.10;61.10;;;;;;5023341;28;20236;-44
2022/06/27 00:32:48;;;;;;;1.90;1.20;;;25.20;60.90;;;;;;5033690;28;20188;-48
2022/06/27 00:35:14;;;;;;;1.97;1.30;;;25.20;61.00;;;;;;5039645;28;20210;-48
2022/06/27 00:37:40;;;;;;;1.77;1.37;;;25.20;61.10;;;;;;5029806;28;20803;-48
2022/06/27 00:40:07;;;;;;;4.03;1.50;;;25.40;61.70;;;;;;5026867;28;20303;-45
2022/06/27 00:42:33;;;;;;;2.40;1.50;;;25.50;60.90;;;;;;5031877;28;20213;-49
2022/06/27 00:44:59;;;;;;;8.83;1.30;;;25.50;60.60;;;;;;5032543;28;20443;-45
2022/06/27 00:47:24;;;;;;;1.20;0.93;;;25.30;61.30;;;;;;5022031;28;20865;-46
2022/06/27 00:49:50;;;;;;;3.10;1.30;;;25.00;62.40;;;;;;5029424;28;20644;-46
2022/06/27 00:52:16;;;;;;;1.90;1.30;;;24.70;63.90;;;;;;5027110;28;20225;-44
2022/06/27 00:54:45;;;;;;;3.17;1.23;;;24.40;64.90;;;;;;5028469;28;20200;-48
2022/06/27 00:57:12;;;;;;;3.67;1.57;;;24.20;65.80;;;;;;5022482;28;20185;-45
2022/06/27 00:59:38;;;;;;;3.00;1.43;;;23.90;66.70;;;;;;5023576;28;20444;-45
2022/06/27 01:02:05;;;;;;;3.90;1.93;;;23.60;67.20;;;;;;5033117;28;20926;-46
2022/06/27 01:04:30;;;;;;;2.93;1.90;;;23.90;68.30;;;;;;5040155;28;20443;-45
2022/06/27 01:06:57;;;;;;;1.83;1.30;;;24.10;67.20;;;;;;5032173;28;20771;-44
2022/06/27 01:09:24;;;;;;;3.07;1.80;;;24.50;66.10;;;;;;5029103;28;20194;-44
2022/06/27 01:11:50;;;;;;;4.40;1.43;;;24.80;64.70;;;;;;5024031;28;20934;-47
2022/06/27 01:14:17;;;;;;;1.67;1.50;;;25.10;63.60;;;;;;5038485;28;20451;-45
2022/06/27 01:16:43;;;;;;;1.50;1.40;;;25.30;62.80;;;;;;5026305;28;20585;-45
2022/06/27 01:19:10;;;;;;;2.43;1.20;;;25.30;62.40;;;;;;5024472;28;20432;-47
2022/06/27 01:21:43;;;;;;;1.57;1.37;;;25.50;61.40;;;;;;5034129;28;20446;-49
2022/06/27 01:24:09;;;;;;;1.77;1.27;;;25.40;61.30;;;;;;5035439;28;20479;-49
2022/06/27 01:26:35;;;;;;;3.47;1.33;;;25.00;62.20;;;;;;5029673;28;20941;-47
2022/06/27 01:29:01;;;;;;;2.10;1.20;;;25.00;63.50;;;;;;5028998;28;20194;-45
2022/06/27 01:31:27;;;;;;;1.10;1.00;;;25.10;63.20;;;;;;5024582;28;20200;-45
2022/06/27 01:33:53;;;;;;;2.93;1.27;;;25.10;62.80;;;;;;5027786;28;20755;-47
2022/06/27 01:39:05;;;;;;;2.03;1.00;;;25.00;63.00;;;;;;5035667;28;20454;-45
2022/06/27 01:41:30;;;;;;;1.77;0.90;;;25.10;62.60;;;;;;5040856;28;20432;-46
2022/06/27 01:43:56;;;;;;;2.40;1.10;;;25.20;62.40;;;;;;5025201;28;20491;-45
2022/06/27 01:46:22;;;;;;;2.40;1.23;;;25.20;62.50;;;;;;5025085;28;20288;-46
2022/06/27 01:48:48;;;;;;;2.50;1.10;;;25.40;61.70;;;;;;5036227;28;20211;-46
2022/06/27 01:51:14;;;;;;;1.93;1.10;;;25.40;61.80;;;;;;5026166;28;20275;-49
2022/06/27 01:53:40;;;;;;;1.67;1.30;;;25.50;61.40;;;;;;5023461;28;20576;-49
2022/06/27 01:56:06;;;;;;;1.40;1.10;;;25.60;61.10;;;;;;5026680;28;20452;-49
2022/06/27 01:58:32;;;;;;;2.50;0.80;;;25.60;61.40;;;;;;5025756;28;20479;-46
2022/06/27 02:00:58;;;;;;;3.30;1.20;;;25.50;61.20;;;;;;5020120;28;20444;-48
2022/06/27 02:03:24;;;;;;;1.70;1.00;;;25.40;59.90;;;;;;5034714;28;20505;-47
2022/06/27 02:05:51;;;;;;;2.80;1.10;;;25.10;61.60;;;;;;5025129;28;20562;-46
2022/06/27 02:08:20;;;;;;;2.40;0.83;;;25.10;62.40;;;;;;5031506;28;20266;-49
2022/06/27 02:10:46;;;;;;;1.50;1.13;;;25.00;63.10;;;;;;5040712;28;20470;-48
2022/06/27 02:13:13;;;;;;;2.60;1.27;;;25.00;63.20;;;;;;5038060;28;20435;-48
2022/06/27 02:16:19;;;;;;;1.37;1.00;;;25.10;62.80;;;;;;5034435;28;20523;-45
2022/06/27 02:18:45;;;;;;;1.47;0.93;;;25.50;61.60;;;;;;5041030;28;20450;-45
2022/06/27 02:21:14;;;;;;;1.80;0.97;;;25.40;61.80;;;;;;5045446;28;20526;-49
2022/06/27 02:23:40;;;;;;;0.97;0.90;;;25.40;61.90;;;;;;5033606;28;20560;-48
2022/06/27 02:26:11;;;;;;;4.93;1.50;;;25.60;61.30;;;;;;5030620;28;20467;-46
2022/06/27 02:28:37;;;;;;;1.90;1.20;;;25.70;60.70;;;;;;5030219;28;20950;-48
2022/06/27 02:31:03;;;;;;;1.13;1.03;;;25.80;60.10;;;;;;5033870;28;20447;-46
2022/06/27 02:33:37;;;;;;;2.10;1.27;;;26.00;59.80;;;;;;5039616;28;20205;-48
2022/06/27 02:36:04;;;;;;;1.57;1.00;;;26.10;58.70;;;;;;5028416;28;20511;-48
2022/06/27 02:38:30;;;;;;;2.07;1.07;;;25.90;59.50;;;;;;5036500;28;20507;-45
2022/06/27 02:40:58;;;;;;;2.10;1.17;;;25.70;60.00;;;;;;5037840;28;20495;-48
2022/06/27 02:43:27;;;;;;;1.30;0.93;;;25.60;61.30;;;;;;5037780;28;20656;-45
2022/06/27 02:45:54;;;;;;;1.90;1.10;;;25.70;60.70;;;;;;5043966;28;20785;-46
2022/06/27 02:48:25;;;;;;;3.20;1.00;;;25.70;60.60;;;;;;5043478;28;20448;-47
2022/06/27 02:50:54;;;;;;;1.60;1.50;;;25.60;60.90;;;;;;5036598;28;20533;-45
2022/06/27 02:53:27;;;;;;;3.80;1.30;;;25.90;60.00;;;;;;5030329;28;20448;-45
2022/06/27 02:55:59;;;;;;;2.40;1.10;;;25.90;59.50;;;;;;5042899;28;20475;-46
2022/06/27 02:58:38;;;;;;;1.20;0.90;;;25.90;60.10;;;;;;5011890;28;20850;-48
2022/06/27 03:01:04;;;;;;;0.93;0.77;;;25.90;59.60;;;;;;5031059;28;20443;-48
2022/06/27 03:03:32;;;;;;;2.47;1.10;;;26.00;59.60;;;;;;5029221;28;20479;-45
2022/06/27 03:05:57;;;;;;;2.17;0.87;;;26.10;59.40;;;;;;5028705;28;20447;-45
2022/06/27 03:08:23;;;;;;;4.20;1.03;;;26.10;59.00;;;;;;5028102;28;20444;-45
2022/06/27 03:10:49;;;;;;;3.07;0.90;;;26.10;58.90;;;;;;5037621;28;20272;-45
2022/06/27 03:13:14;;;;;;;1.90;1.00;;;26.10;58.90;;;;;;5038923;28;20193;-48
2022/06/27 03:15:40;;;;;;;4.77;1.53;;;26.10;58.80;;;;;;5029015;28;20225;-48
2022/06/27 03:18:06;;;;;;;1.53;1.00;;;26.10;59.00;;;;;;5036561;28;20203;-45
2022/06/27 03:20:31;;;;;;;4.10;0.97;;;26.20;58.50;;;;;;5032317;28;20200;-45
2022/06/27 03:22:57;;;;;;;1.00;0.90;;;26.20;58.50;;;;;;5032825;28;20229;-45
2022/06/27 03:25:23;;;;;;;0.90;0.90;;;26.10;59.50;;;;;;5037752;28;20287;-45
2022/06/27 03:27:48;;;;;;;2.10;1.00;;;26.00;58.80;;;;;;5034173;28;20200;-45
2022/06/27 03:30:14;;;;;;;1.67;1.20;;;25.80;59.60;;;;;;5035283;28;20656;-45
2022/06/27 03:32:39;;;;;;;0.90;0.70;;;25.80;59.80;;;;;;5034477;28;20196;-45
2022/06/27 03:35:05;;;;;;;4.30;1.27;;;25.90;59.70;;;;;;5027209;28;20204;-46
2022/06/27 03:37:31;;;;;;;1.27;0.97;;;25.90;59.60;;;;;;5034487;28;20197;-45
2022/06/27 03:39:57;;;;;;;3.17;1.40;;;25.70;60.60;;;;;;5034659;28;20950;-46
2022/06/27 03:42:22;;;;;;;1.43;0.90;;;26.10;59.30;;;;;;5026109;28;20267;-48
2022/06/27 03:44:48;;;;;;;1.40;1.10;;;26.30;58.50;;;;;;5024572;28;20619;-45
2022/06/27 03:47:14;;;;;;;1.93;1.23;;;26.40;58.10;;;;;;5023641;28;20620;-45
2022/06/27 03:52:23;;;;;;;3.97;1.40;;;26.40;57.90;;;;;;5017681;28;20270;-46
2022/06/27 03:54:49;;;;;;;2.00;1.30;;;26.40;57.80;;;;;;5035462;28;20471;-46
2022/06/27 03:57:14;;;;;;;1.30;1.20;;;26.50;57.60;;;;;;5027496;28;20193;-45
2022/06/27 03:59:40;;;;;;;1.23;1.10;;;26.60;57.50;;;;;;5023942;28;20216;-46
2022/06/27 04:02:06;;;;;;;1.03;0.97;;;26.60;57.30;;;;;;5024187;28;20193;-47
2022/06/27 04:04:31;;;;;;;1.80;1.30;;;26.70;57.20;;;;;;5020458;28;21578;-46
2022/06/27 04:06:57;;;;;;;1.10;1.00;;;26.60;57.00;;;;;;5018995;28;20282;-46
2022/06/27 04:09:22;;;;;;;1.37;1.00;;;26.60;57.30;;;;;;5017802;28;20194;-45
2022/06/27 04:11:48;;;;;;;1.10;0.87;;;26.60;57.20;;;;;;5019950;28;20951;-46
2022/06/27 04:14:13;;;;;;;1.00;0.90;;;26.70;57.10;;;;;;5021357;28;20193;-45
2022/06/27 04:16:39;;;;;;;1.53;1.30;;;26.70;56.90;;;;;;5027534;28;20194;-46
2022/06/27 04:19:05;;;;;;;2.93;1.23;;;26.40;57.40;;;;;;5019207;28;20205;-46
2022/06/27 04:21:32;;;;;;;2.57;1.10;;;26.20;57.70;;;;;;5021124;28;20201;-48
2022/06/27 04:23:57;;;;;;;1.17;1.00;;;26.10;58.10;;;;;;5021880;28;20948;-46
2022/06/27 04:26:24;;;;;;;2.30;1.20;;;26.20;58.30;;;;;;5025387;28;20473;-45
2022/06/27 04:28:50;;;;;;;1.93;1.10;;;26.30;58.10;;;;;;5019918;28;20189;-46
2022/06/27 04:31:16;;;;;;;1.53;1.03;;;26.40;58.00;;;;;;5016025;28;20984;-45
2022/06/27 04:33:44;;;;;;;1.33;1.00;;;26.60;57.70;;;;;;5020610;28;20195;-47
2022/06/27 04:36:10;;;;;;;0.83;0.83;;;26.60;57.40;;;;;;5028960;28;21219;-45
2022/06/27 04:38:36;;;;;;;1.90;1.10;;;26.70;57.20;;;;;;5029598;28;20816;-45
2022/06/27 04:41:02;;;;;;;1.00;0.90;;;26.80;57.00;;;;;;5019998;28;20443;-47
2022/06/27 04:43:28;;;;;;;2.03;0.90;;;26.80;56.80;;;;;;5017409;28;20233;-48
2022/06/27 04:45:54;;;;;;;2.30;1.30;;;26.90;56.70;;;;;;5018301;28;20570;-47
2022/06/27 04:48:20;;;;;;;1.20;1.10;;;27.00;56.60;;;;;;5021110;28;20508;-45
2022/06/27 04:50:46;;;;;;;1.60;1.07;;;27.00;56.60;;;;;;5022491;28;20875;-46
2022/06/27 04:53:13;;;;;;;1.37;1.10;;;27.00;56.60;;;;;;5028879;28;21097;-46
2022/06/27 04:55:39;;;;;;;1.37;1.13;;;26.90;56.80;;;;;;5028439;28;20470;-46
2022/06/27 04:58:05;;;;;;;1.43;1.33;;;26.70;56.70;;;;;;5029665;28;21010;-45
2022/06/27 05:00:31;;;;;;;1.73;1.30;;;26.50;57.80;;;;;;5032058;28;20644;-45
2022/06/27 05:02:56;;;;;;;2.50;1.17;;;26.40;58.40;;;;;;5035023;28;20224;-45
2022/06/27 05:05:22;;;;;;;1.50;0.90;;;26.10;58.60;;;;;;5030658;28;20258;-45
2022/06/27 05:07:48;;;;;;;5.27;1.20;;;25.80;60.00;;;;;;5031498;28;20197;-48
2022/06/27 05:10:13;;;;;;;2.90;1.33;;;25.60;60.60;;;;;;5042433;28;20379;-48
2022/06/27 05:12:39;;;;;;;1.40;1.07;;;25.60;60.60;;;;;;5040110;28;20556;-47
2022/06/27 05:15:05;;;;;;;3.13;1.10;;;25.60;61.10;;;;;;5038354;28;20247;-49
2022/06/27 05:17:31;;;;;;;1.13;1.00;;;25.90;60.50;;;;;;5041534;28;20194;-49
2022/06/27 05:19:56;;;;;;;1.37;1.27;;;26.00;59.80;;;;;;5035383;28;20443;-47
2022/06/27 05:22:22;;;;;;;1.57;1.20;;;26.10;59.40;;;;;;5037445;28;20228;-45
2022/06/27 05:24:48;;;;;;;3.10;1.30;;;25.90;59.70;;;;;;5043177;28;20711;-48
2022/06/27 05:27:16;;;;;;;1.63;1.13;;;25.90;60.40;;;;;;5039202;28;20276;-48
2022/06/27 05:29:41;;;;;;;1.00;0.90;;;26.10;59.80;;;;;;5036723;28;20455;-47
2022/06/27 05:32:07;;;;;;;1.67;1.40;;;26.40;59.50;;;;;;5031113;28;20486;-48
2022/06/27 05:34:33;;;;;;;1.97;1.67;;;26.60;58.90;;;;;;5023019;28;20186;-49
2022/06/27 05:36:59;;;;;;;1.87;1.10;;;26.80;58.50;;;;;;5030801;28;20185;-48
2022/06/27 05:39:24;;;;;;;2.80;1.27;;;26.90;58.20;;;;;;5031331;28;20235;-49
2022/06/27 05:41:50;;;;;;;3.00;1.10;;;27.00;58.00;;;;;;5032584;28;20435;-46
2022/06/27 05:44:16;;;;;;;3.10;1.23;;;27.00;57.90;;;;;;5033143;28;20228;-47
2022/06/27 05:46:41;;;;;;;1.43;1.00;;;27.10;57.80;;;;;;5032632;28;20209;-49
2022/06/27 05:49:09;;;;;;;2.30;1.47;;;27.10;57.70;;;;;;5030652;28;20576;-46
2022/06/27 05:51:36;;;;;;;1.47;1.20;;;27.20;58.00;;;;;;5031929;28;20681;-46
2022/06/27 05:54:02;;;;;;;3.70;1.63;;;27.20;57.80;;;;;;5034488;28;20477;-46
2022/06/27 05:56:30;;;;;;;3.10;1.50;;;27.20;57.90;;;;;;5034262;28;20520;-46
2022/06/27 05:58:57;;;;;;;2.40;1.40;;;27.10;58.50;;;;;;5028679;28;20853;-46
2022/06/27 06:01:23;;;;;;;1.63;1.53;;;26.90;59.00;;;;;;5036054;28;20432;-48
2022/06/27 06:03:48;;;;;;;2.83;1.50;;;26.70;59.20;;;;;;5031366;28;21421;-44
2022/06/27 06:06:16;;;;;;;6.80;1.90;;;26.50;59.80;;;;;;5031862;28;20193;-45
2022/06/27 06:08:43;;;;;;;4.80;2.03;;;26.50;60.20;;;;;;5030932;28;20273;-45
2022/06/27 06:11:13;;;;;;;3.60;2.00;;;26.50;60.40;;;;;;5031490;28;20444;-45
2022/06/27 06:13:39;;;;;;;1.70;1.60;;;26.40;61.20;;;;;;5029114;28;20447;-45
2022/06/27 06:16:06;;;;;;;4.03;2.20;;;26.30;61.80;;;;;;5032961;28;20442;-46
2022/06/27 06:18:33;;;;;;;1.60;1.37;;;26.30;60.70;;;;;;5036445;28;20468;-45
2022/06/27 06:20:59;;;;;;;2.57;1.83;;;26.40;60.60;;;;;;5027696;28;20931;-45
2022/06/27 06:23:25;;;;;;;3.13;2.03;;;26.50;60.70;;;;;;5027506;28;20542;-46
2022/06/27 06:25:51;;;;;;;4.10;1.70;;;26.40;61.80;;;;;;5032208;28;20228;-45
2022/06/27 06:28:17;;;;;;;2.70;1.47;;;26.30;61.20;;;;;;5041405;28;20439;-45
2022/06/27 06:30:43;;;;;;;3.37;1.40;;;26.10;61.50;;;;;;5012089;28;20712;-45
2022/06/27 06:33:09;;;;;;;2.33;1.40;;;26.10;61.60;;;;;;5034497;28;20509;-44
2022/06/27 06:35:35;;;;;;;3.03;1.30;;;26.10;61.30;;;;;;5030386;28;20190;-45
2022/06/27 06:38:01;;;;;;;4.20;1.50;;;26.10;60.80;;;;;;5030402;28;20200;-45
2022/06/27 06:40:28;;;;;;;3.77;1.50;;;26.00;60.70;;;;;;5029765;28;20451;-45
2022/06/27 06:42:55;;;;;;;3.73;1.43;;;26.00;61.50;;;;;;5029721;28;20495;-44
2022/06/27 06:45:21;;;;;;;3.10;1.20;;;26.00;61.20;;;;;;5029942;28;20464;-45
2022/06/27 06:47:49;;;;;;;2.33;1.30;;;26.00;61.50;;;;;;5038580;28;20945;-44
2022/06/27 06:50:18;;;;;;;7.93;1.50;;;26.20;61.60;;;;;;5013044;28;20546;-45
2022/06/27 06:52:46;;;;;;;1.30;1.00;;;26.10;60.90;;;;;;5033970;28;20932;-44
2022/06/27 06:55:12;;;;;;;4.93;1.47;;;26.20;60.30;;;;;;5036328;28;21061;-44
2022/06/27 06:57:38;;;;;;;1.43;1.27;;;26.20;60.40;;;;;;5034545;28;20447;-44
2022/06/27 07:00:06;;;;;;;3.13;1.13;;;26.40;60.30;;;;;;5037420;28;20453;-44
2022/06/27 07:02:32;;;;;;;2.23;1.13;;;26.40;60.50;;;;;;5035141;28;20817;-44
2022/06/27 07:04:58;;;;;;;2.23;1.60;;;26.50;59.70;;;;;;5031676;28;20452;-44
2022/06/27 07:07:25;;;;;;;1.10;1.10;;;26.70;59.40;;;;;;5042070;28;20449;-44
2022/06/27 07:09:51;;;;;;;3.67;1.20;;;26.80;59.20;;;;;;5038903;28;20439;-44
2022/06/27 07:12:18;;;;;;;3.07;1.17;;;26.90;58.70;;;;;;5033596;28;20856;-44
2022/06/27 07:14:45;;;;;;;2.70;1.23;;;27.10;58.30;;;;;;5031363;28;21181;-44
2022/06/27 07:17:11;;;;;;;4.20;1.20;;;27.10;57.80;;;;;;5028777;28;20443;-43
2022/06/27 07:19:38;;;;;;;3.70;1.30;;;27.20;57.80;;;;;;5030014;28;20443;-44
2022/06/27 07:22:05;;;;;;;1.20;1.10;;;27.20;57.30;;;;;;5027813;28;20451;-44
2022/06/27 07:24:31;;;;;;;1.73;0.90;;;27.20;57.50;;;;;;5035089;28;20487;-43
2022/06/27 07:26:59;;;;;;;1.53;1.13;;;27.20;57.80;;;;;;5027915;28;21206;-44
2022/06/27 07:29:26;;;;;;;1.90;1.20;;;27.10;57.70;;;;;;5021486;28;20234;-44
2022/06/27 07:31:53;;;;;;;1.73;1.00;;;27.20;57.70;;;;;;5023746;28;20457;-44
2022/06/27 07:34:21;;;;;;;1.00;1.00;;;27.40;57.50;;;;;;5022122;28;20532;-44
2022/06/27 07:36:46;;;;;;;1.50;1.40;;;27.50;57.60;;;;;;5025042;28;20451;-44
2022/06/27 07:39:12;;;;;;;1.73;0.90;;;27.60;57.50;;;;;;5028754;28;20447;-43
2022/06/27 07:41:37;;;;;;;3.83;1.50;;;27.70;56.50;;;;;;5025507;28;20271;-47
2022/06/27 07:44:03;;;;;;;1.30;1.20;;;27.70;56.80;;;;;;5025445;28;20690;-44
2022/06/27 07:46:31;;;;;;;2.73;1.20;;;27.80;56.80;;;;;;5026976;28;20189;-48
2022/06/27 07:48:57;;;;;;;1.60;1.40;;;27.90;56.50;;;;;;5030367;28;20439;-44
2022/06/27 07:51:23;;;;;;;1.13;1.10;;;28.00;56.20;;;;;;5036151;28;20487;-44
2022/06/27 07:53:50;;;;;;;1.93;1.70;;;28.00;56.00;;;;;;5035858;28;20204;-47
2022/06/27 07:56:18;;;;;;;1.30;1.20;;;28.00;55.30;;;;;;5030872;28;20209;-48
2022/06/27 07:58:44;;;;;;;3.03;1.20;;;28.00;55.80;;;;;;4995601;28;21305;-48
2022/06/27 08:01:18;;;;;;;1.73;1.60;;;28.00;55.90;;;;;;5028868;28;20443;-48
2022/06/27 08:03:44;;;;;;;4.13;1.30;;;27.90;55.60;;;;;;5014996;28;20987;-45
2022/06/27 08:06:20;;;;;;;1.80;1.70;;;27.90;56.00;;;;;;5029938;28;21102;-49
2022/06/27 08:08:49;;;;;;;2.30;1.63;;;27.80;56.00;;;;;;5027675;28;20524;-47
2022/06/27 08:11:23;;;;;;;6.03;1.47;;;27.70;57.00;;;;;;5030154;28;20442;-45
2022/06/27 08:13:50;;;;;;;2.53;1.40;;;27.70;56.70;;;;;;5029922;28;20534;-46
2022/06/27 08:16:18;;;;;;;3.93;1.53;;;27.70;56.50;;;;;;5027013;28;20505;-48
2022/06/27 08:18:47;;;;;;;1.50;1.40;;;27.80;56.60;;;;;;5024611;28;21279;-49
2022/06/27 08:21:14;;;;;;;1.27;1.23;;;27.80;56.50;;;;;;5029205;28;20440;-45
2022/06/27 08:23:40;;;;;;;1.53;1.37;;;27.80;56.20;;;;;;5025056;28;20615;-48
2022/06/27 08:26:10;;;;;;;1.37;1.27;;;27.90;56.20;;;;;;5024249;28;20440;-46
2022/06/27 08:28:37;;;;;;;1.57;1.40;;;28.10;56.20;;;;;;5028319;28;20436;-46
2022/06/27 08:31:08;;;;;;;1.23;1.13;;;28.20;55.90;;;;;;5027198;28;20451;-46
2022/06/27 08:33:34;;;;;;;1.63;1.30;;;28.40;55.80;;;;;;5025103;28;20462;-46
2022/06/27 08:36:02;;;;;;;1.50;1.40;;;28.50;55.30;;;;;;5033876;28;20444;-49
2022/06/27 08:38:28;;;;;;;3.07;1.20;;;28.40;54.30;;;;;;5028568;28;20460;-46
2022/06/27 08:40:54;;;;;;;1.90;1.80;;;28.10;54.90;;;;;;5035685;28;20983;-49
2022/06/27 08:43:21;;;;;;;0.97;0.97;;;28.20;55.20;;;;;;5035336;28;20819;-46
2022/06/27 08:45:47;;;;;;;2.27;1.50;;;28.20;55.50;;;;;;5032446;28;20949;-48
2022/06/27 08:48:14;;;;;;;1.80;1.70;;;28.30;55.10;;;;;;5030401;28;20466;-47
2022/06/27 08:50:42;;;;;;;1.57;1.07;;;28.20;54.70;;;;;;5033736;28;20458;-48
2022/06/27 08:53:10;;;;;;;1.30;1.20;;;28.10;54.60;;;;;;5033854;28;20448;-47
2022/06/27 08:55:36;;;;;;;3.60;1.20;;;28.30;55.50;;;;;;5037373;28;20440;-48
2022/06/27 08:58:04;;;;;;;1.70;1.60;;;28.40;54.80;;;;;;5025473;28;20451;-46
2022/06/27 09:00:36;;;;;;;1.50;1.33;;;28.60;54.50;;;;;;5042155;28;20259;-45
2022/06/27 09:03:03;;;;;;;2.87;1.53;;;28.60;54.00;;;;;;5032689;28;20535;-49
2022/06/27 09:05:31;;;;;;;1.90;1.80;;;28.70;53.80;;;;;;5034275;28;20451;-45
2022/06/27 09:07:59;;;;;;;1.60;1.50;;;28.70;54.10;;;;;;5028167;28;20542;-45
2022/06/27 09:10:25;;;;;;;7.40;2.13;;;28.70;54.30;;;;;;5028589;28;20463;-47
2022/06/27 09:13:20;;;;;;;1.80;1.57;;;28.70;54.00;;;;;;5031425;28;20463;-45
2022/06/27 09:15:57;;;;;;;1.40;1.30;;;28.80;53.80;;;;;;5011378;28;20506;-45
2022/06/27 09:18:37;;;;;;;2.47;1.80;;;28.70;53.50;;;;;;5028812;28;20456;-47
2022/06/27 09:21:03;;;;;;;2.30;1.63;;;28.60;54.30;;;;;;5029651;28;20462;-47
2022/06/27 09:23:49;;;;;;;2.70;1.50;;;28.70;53.90;;;;;;5034362;28;20494;-45
2022/06/27 09:26:22;;;;;;;2.53;2.00;;;28.60;53.40;;;;;;5025121;28;20506;-48
2022/06/27 09:28:48;;;;;;;2.07;1.80;;;28.50;54.10;;;;;;5037129;28;20464;-46
2022/06/27 09:31:32;;;;;;;2.50;1.70;;;28.40;53.90;;;;;;5028206;28;20448;-45
2022/06/27 09:34:08;;;;;;;1.83;1.73;;;28.40;53.80;;;;;;5032296;28;20189;-47
2022/06/27 09:36:35;;;;;;;2.03;1.93;;;28.30;54.40;;;;;;5028100;28;20989;-49
2022/06/27 09:39:02;;;;;;;1.40;1.30;;;28.30;54.60;;;;;;5035104;28;20939;-46
2022/06/27 09:41:32;;;;;;;2.53;1.57;;;28.30;54.70;;;;;;5034564;28;20448;-45
2022/06/27 09:44:06;;;;;;;2.40;1.60;;;28.30;54.90;;;;;;5038336;28;20529;-44
2022/06/27 09:46:35;;;;;;;2.10;1.90;;;28.30;55.40;;;;;;5024777;28;20447;-45
2022/06/27 09:49:03;;;;;;;1.70;1.60;;;28.30;55.50;;;;;;5030739;28;20444;-44
2022/06/27 09:51:34;;;;;;;3.63;2.27;;;28.40;54.70;;;;;;5036285;28;20483;-45
2022/06/27 09:54:08;;;;;;;3.37;2.10;;;28.40;54.30;;;;;;5039568;28;20444;-48
2022/06/27 09:56:39;;;;;;;3.00;1.80;;;28.60;54.90;;;;;;5031410;28;20909;-45
2022/06/27 09:59:08;;;;;;;3.80;1.90;;;28.60;54.70;;;;;;5041532;28;20478;-46
2022/06/27 10:01:35;;;;;;;1.50;1.40;;;28.60;53.80;;;;;;5038641;28;20895;-46
2022/06/27 10:04:02;;;;;;;3.43;1.73;;;28.60;53.80;;;;;;5036611;28;20514;-45
2022/06/27 10:06:29;;;;;;;1.60;1.50;;;28.50;53.60;;;;;;5039083;28;20448;-45
2022/06/27 10:08:55;;;;;;;2.77;1.70;;;28.60;53.70;;;;;;5029368;28;20483;-48
2022/06/27 10:11:21;;;;;;;1.87;1.77;;;28.60;53.70;;;;;;5036400;28;20479;-44
2022/06/27 10:14:12;;;;;;;1.80;1.70;;;28.60;53.50;;;;;;5030540;28;20591;-44
2022/06/27 10:16:52;;;;;;;1.90;1.70;;;28.80;53.50;;;;;;5040375;28;20204;-45
2022/06/27 10:19:18;;;;;;;1.67;1.57;;;29.10;53.80;;;;;;5031890;28;20482;-45
2022/06/27 10:21:47;;;;;;;2.03;1.63;;;29.30;53.60;;;;;;5043262;28;20451;-46
2022/06/27 10:24:18;;;;;;;2.10;2.00;;;29.60;52.80;;;;;;5043915;28;20495;-48
2022/06/27 10:26:46;;;;;;;1.90;1.80;;;29.70;52.30;;;;;;5025213;28;20481;-46
2022/06/27 10:29:29;;;;;;;2.13;2.03;;;29.80;51.50;;;;;;5027944;28;20455;-46
2022/06/27 10:31:58;;;;;;;1.97;1.87;;;29.80;50.50;;;;;;5034356;28;20538;-45
2022/06/27 10:34:46;;;;;;;2.70;2.50;;;29.60;51.20;;;;;;5035982;28;20443;-45
2022/06/27 10:37:21;;;;;;;2.30;2.20;;;29.30;51.40;;;;;;5026181;28;20841;-49
2022/06/27 10:39:48;;;;;;;2.10;2.00;;;29.10;51.90;;;;;;5030849;28;20808;-47
2022/06/27 10:42:44;;;;;;;2.60;2.40;;;29.20;52.00;;;;;;5018502;28;20448;-45
2022/06/27 10:45:28;;;;;;;2.00;1.90;;;29.30;50.90;;;;;;5034773;28;20493;-45
2022/06/27 10:47:57;;;;;;;2.97;2.33;;;29.20;51.10;;;;;;5035959;28;20462;-45
2022/06/27 10:50:25;;;;;;;2.97;2.40;;;29.00;51.10;;;;;;5027686;28;20803;-46
2022/06/27 10:53:21;;;;;;;2.90;2.30;;;29.00;51.60;;;;;;5028200;28;20447;-44
2022/06/27 10:55:47;;;;;;;2.53;2.37;;;29.10;51.50;;;;;;5030323;28;20610;-45
2022/06/27 10:58:27;;;;;;;3.43;2.30;;;29.00;51.30;;;;;;5037200;28;20448;-44
2022/06/27 11:01:12;;;;;;;2.20;2.10;;;29.10;51.50;;;;;;5027854;28;20267;-45
2022/06/27 11:03:39;;;;;;;3.13;2.07;;;29.20;50.60;;;;;;5029009;28;20993;-45
2022/06/27 11:06:06;;;;;;;2.43;2.33;;;29.20;51.10;;;;;;5030718;28;20447;-45
2022/06/27 11:08:34;;;;;;;2.30;2.20;;;29.40;50.30;;;;;;5042056;28;20468;-45
2022/06/27 11:11:01;;;;;;;2.10;2.00;;;29.50;50.40;;;;;;5032625;28;20439;-45
2022/06/27 11:13:43;;;;;;;2.30;2.20;;;29.70;50.30;;;;;;5040894;28;21303;-45
2022/06/27 11:16:26;;;;;;;2.10;2.00;;;30.00;49.00;;;;;;5032959;28;20452;-46
2022/06/27 11:18:54;;;;;;;2.03;1.93;;;30.00;48.50;;;;;;5027232;28;20439;-46
2022/06/27 11:21:22;;;;;;;1.70;1.60;;;29.90;48.40;;;;;;5030445;28;20444;-45
2022/06/27 11:24:00;;;;;;;2.57;2.37;;;29.60;48.60;;;;;;5033157;28;20484;-44
2022/06/27 11:26:29;;;;;;;1.90;1.80;;;29.30;49.40;;;;;;5028487;28;20804;-44
2022/06/27 11:31:57;;;;;;;2.53;1.93;;;29.20;50.00;;;;;;5032895;28;20872;-48
2022/06/27 11:34:26;;;;;;;4.60;2.23;;;28.70;49.90;;;;;;5029418;28;20451;-45
2022/06/27 11:36:53;;;;;;;1.90;1.80;;;28.80;50.10;;;;;;5027771;28;20563;-46
2022/06/27 11:39:23;;;;;;;1.63;1.50;;;29.00;50.10;;;;;;5031914;28;20922;-45
2022/06/27 11:41:56;;;;;;;2.93;1.53;;;29.10;49.20;;;;;;5030777;28;20431;-46
2022/06/27 11:44:21;;;;;;;1.80;1.70;;;29.10;49.10;;;;;;5022187;28;21117;-45
2022/06/27 11:46:49;;;;;;;1.87;1.77;;;29.20;49.00;;;;;;5031684;28;20522;-46
2022/06/27 11:49:18;;;;;;;1.90;1.67;;;29.10;49.20;;;;;;5024469;28;20715;-45
2022/06/27 11:51:47;;;;;;;2.67;2.23;;;29.10;49.60;;;;;;5027218;28;21043;-45
2022/06/27 11:54:22;;;;;;;2.30;2.20;;;29.20;49.60;;;;;;5036574;28;20427;-45
2022/06/27 11:56:50;;;;;;;2.60;2.00;;;29.20;49.30;;;;;;5029171;28;20996;-45
2022/06/27 11:59:18;;;;;;;1.87;1.77;;;29.20;49.10;;;;;;5026972;28;20448;-45
2022/06/27 12:01:54;;;;;;;2.00;1.90;;;29.10;49.70;;;;;;5026871;28;20541;-49
2022/06/27 12:04:25;;;;;;;2.50;2.30;;;29.10;49.70;;;;;;5039881;28;20478;-49
2022/06/27 12:06:56;;;;;;;2.10;2.00;;;29.10;49.80;;;;;;5038375;28;20435;-46
2022/06/27 12:09:24;;;;;;;1.73;1.60;;;29.00;49.80;;;;;;5029121;28;20444;-46
2022/06/27 12:11:57;;;;;;;3.80;2.13;;;29.00;49.40;;;;;;5021222;28;20424;-47
2022/06/27 12:14:24;;;;;;;2.00;1.90;;;29.00;49.50;;;;;;5029179;28;20571;-45
2022/06/27 12:16:55;;;;;;;2.63;1.83;;;28.80;49.90;;;;;;5031405;28;20494;-47
2022/06/27 12:19:22;;;;;;;2.53;2.27;;;28.80;50.00;;;;;;5023655;28;20466;-44
2022/06/27 12:21:48;;;;;;;4.10;2.37;;;28.70;50.00;;;;;;5022715;28;20467;-47
2022/06/27 12:24:15;;;;;;;5.03;2.43;;;28.50;50.40;;;;;;5034684;28;20577;-46
2022/06/27 12:26:41;;;;;;;4.50;2.10;;;28.50;51.00;;;;;;5032922;28;20210;-45
2022/06/27 12:29:07;;;;;;;2.67;2.47;;;28.40;50.30;;;;;;5022950;28;20452;-48
2022/06/27 12:31:34;;;;;;;2.60;2.40;;;28.20;50.60;;;;;;5029407;28;20197;-47
2022/06/27 12:34:01;;;;;;;3.03;2.53;;;28.30;50.90;;;;;;5029655;28;20440;-47
2022/06/27 12:36:28;;;;;;;2.30;2.10;;;28.30;50.90;;;;;;5006086;28;20444;-49
2022/06/27 12:38:54;;;;;;;2.73;2.53;;;28.30;51.00;;;;;;5033143;28;20574;-44
2022/06/27 12:41:20;;;;;;;5.97;2.30;;;28.10;51.00;;;;;;5039845;28;21010;-47
2022/06/27 12:43:46;;;;;;;2.80;2.60;;;28.20;51.20;;;;;;5030118;28;20635;-46
2022/06/27 12:46:13;;;;;;;3.13;2.33;;;28.20;51.10;;;;;;5028040;28;20276;-49
2022/06/27 12:48:40;;;;;;;2.50;2.30;;;28.00;51.40;;;;;;5037940;28;20447;-48
2022/06/27 12:51:07;;;;;;;3.70;2.60;;;27.70;52.00;;;;;;5034972;28;20522;-49
2022/06/27 12:53:33;;;;;;;3.13;2.60;;;27.80;52.00;;;;;;5028351;28;20451;-48
2022/06/27 12:56:01;;;;;;;2.43;2.23;;;27.80;52.10;;;;;;5026898;28;20450;-49
2022/06/27 12:58:27;;;;;;;6.03;3.23;;;27.80;51.30;;;;;;5027476;28;20448;-48
2022/06/27 13:00:53;;;;;;;2.67;2.47;;;27.80;51.30;;;;;;5029577;28;20442;-46